Time;durP1;ratioP1;P1;durP2;ratioP2;P2;SDS_P1;SDS_P2;PMS_P1;PMS_P2;Temp;Humidity;BMP_temperature;BMP_pressure;BME280_temperature;BME280_humidity;BME280_pressure;Samples;Min_cycle;Max_cycle;Signal;HPM_P1;HPM_P2
2024/02/19 00:01:52;;;;;;;1.33;1.17;;;;;;;7.93;100.00;98697.75;6109033;19;20059;-75
2024/02/19 00:03:52;;;;;;;1.20;1.08;;;;;;;7.88;100.00;98706.31;6109677;19;20461;-74
2024/02/19 00:05:53;;;;;;;1.25;1.10;;;;;;;7.84;100.00;98706.19;6108560;19;20056;-74
2024/02/19 00:07:53;;;;;;;1.20;1.10;;;;;;;7.82;100.00;98700.25;6110406;19;20426;-75
2024/02/19 00:09:53;;;;;;;1.20;1.10;;;;;;;7.89;100.00;98705.94;6108042;19;20034;-75
2024/02/19 00:11:54;;;;;;;1.92;1.20;;;;;;;7.84;100.00;98689.66;6109442;19;20758;-75
2024/02/19 00:13:56;;;;;;;3.45;1.10;;;;;;;7.81;100.00;98695.09;6110274;19;20083;-75
2024/02/19 00:15:56;;;;;;;1.13;1.00;;;;;;;7.85;100.00;98705.03;6109302;19;20007;-75
2024/02/19 00:17:58;;;;;;;1.50;1.10;;;;;;;7.76;100.00;98696.16;6108721;19;20397;-75
2024/02/19 00:19:58;;;;;;;1.15;1.00;;;;;;;7.73;100.00;98696.88;6109004;19;20007;-74
2024/02/19 00:21:58;;;;;;;1.48;1.20;;;;;;;7.64;100.00;98709.22;6107818;19;20381;-74
2024/02/19 00:23:59;;;;;;;5.10;1.20;;;;;;;7.65;100.00;98708.84;6107986;19;20007;-75
2024/02/19 00:26:00;;;;;;;1.05;0.95;;;;;;;7.56;100.00;98695.25;6108913;19;20011;-75
2024/02/19 00:28:01;;;;;;;1.40;1.20;;;;;;;7.58;100.00;98690.19;6108308;19;20013;-75
2024/02/19 00:30:01;;;;;;;1.73;1.00;;;;;;;7.57;100.00;98691.34;6107409;19;20027;-74
2024/02/19 00:32:02;;;;;;;1.15;1.05;;;;;;;7.53;100.00;98687.69;6109187;19;20066;-75
2024/02/19 00:34:02;;;;;;;2.90;1.52;;;;;;;7.56;100.00;98686.97;6108805;19;20058;-75
2024/02/19 00:36:04;;;;;;;1.20;1.00;;;;;;;7.53;100.00;98695.13;6107304;19;20003;-75
2024/02/19 00:38:05;;;;;;;1.58;1.15;;;;;;;7.54;100.00;98696.75;6108093;19;20023;-74
2024/02/19 00:40:06;;;;;;;1.10;1.00;;;;;;;7.52;100.00;98693.53;6107300;19;19994;-75
2024/02/19 00:42:06;;;;;;;0.90;0.90;;;;;;;7.48;100.00;98684.41;6108139;19;20058;-74
2024/02/19 00:44:07;;;;;;;1.63;1.10;;;;;;;7.42;100.00;98685.78;6108535;19;20020;-75
2024/02/19 00:46:07;;;;;;;1.00;0.90;;;;;;;7.45;100.00;98677.66;6107808;19;20003;-74
2024/02/19 00:48:08;;;;;;;1.38;0.95;;;;;;;7.41;100.00;98675.94;6108783;19;20350;-75
2024/02/19 00:50:09;;;;;;;0.95;0.95;;;;;;;7.40;100.00;98682.59;6105149;19;20006;-74
2024/02/19 00:52:09;;;;;;;1.00;0.82;;;;;;;7.42;100.00;98680.28;6107474;19;20406;-74
2024/02/19 00:54:09;;;;;;;0.80;0.80;;;;;;;7.38;100.00;98673.91;6108674;19;20002;-75
2024/02/19 00:56:10;;;;;;;0.93;0.80;;;;;;;7.40;100.00;98682.59;6110450;19;20018;-75
2024/02/19 00:58:10;;;;;;;0.70;0.70;;;;;;;7.44;100.00;98666.97;6113798;19;20384;-74
2024/02/19 01:00:11;;;;;;;0.65;0.65;;;;;;;7.50;100.00;98666.38;6112577;19;20447;-74
2024/02/19 01:02:11;;;;;;;1.42;0.80;;;;;;;7.47;100.00;98671.78;6112048;19;20002;-74
2024/02/19 01:04:11;;;;;;;2.42;0.70;;;;;;;7.47;100.00;98678.09;6112895;19;20006;-74
2024/02/19 01:06:12;;;;;;;1.45;0.70;;;;;;;7.44;100.00;98686.22;6113201;19;20024;-74
2024/02/19 01:08:12;;;;;;;0.75;0.75;;;;;;;7.35;100.00;98678.13;6113735;19;20407;-74
2024/02/19 01:10:12;;;;;;;0.70;0.70;;;;;;;7.35;100.00;98678.13;6111843;19;20479;-74
2024/02/19 01:12:13;;;;;;;0.80;0.70;;;;;;;7.39;100.00;98681.00;6113679;19;20006;-74
2024/02/19 01:14:13;;;;;;;0.90;0.80;;;;;;;7.43;100.00;98676.38;6106707;19;20010;-74
2024/02/19 01:16:14;;;;;;;0.85;0.70;;;;;;;7.41;100.00;98678.69;6112312;19;20470;-74
2024/02/19 01:18:15;;;;;;;0.77;0.77;;;;;;;7.42;100.00;98685.78;6113419;19;20018;-74
2024/02/19 01:20:15;;;;;;;0.85;0.80;;;;;;;7.40;100.00;98686.16;6112162;19;20459;-74
2024/02/19 01:22:16;;;;;;;0.70;0.68;;;;;;;7.46;100.00;98679.25;6113054;19;19998;-74
2024/02/19 01:24:16;;;;;;;0.85;0.85;;;;;;;7.45;100.00;98685.09;6112200;19;20171;-74
2024/02/19 01:26:22;;;;;;;1.00;0.75;;;;;;;7.47;100.00;98682.81;6109827;19;20066;-74
2024/02/19 01:28:23;;;;;;;0.88;0.70;;;;;;;7.52;100.00;98682.53;6111854;19;20025;-74
2024/02/19 01:30:24;;;;;;;0.80;0.80;;;;;;;7.50;100.00;98687.59;6111268;19;20006;-74
2024/02/19 01:32:25;;;;;;;0.70;0.70;;;;;;;7.46;100.00;98692.22;6112441;19;20379;-74
2024/02/19 01:34:25;;;;;;;0.70;0.70;;;;;;;7.45;100.00;98691.41;6110713;19;20029;-74
2024/02/19 01:36:26;;;;;;;0.85;0.80;;;;;;;7.43;100.00;98696.44;6111843;19;20307;-74
2024/02/19 01:38:27;;;;;;;0.70;0.70;;;;;;;7.41;100.00;98695.22;6110745;19;20023;-74
2024/02/19 01:40:27;;;;;;;0.70;0.70;;;;;;;7.42;100.00;98716.88;6111195;19;20011;-74
2024/02/19 01:42:27;;;;;;;0.70;0.70;;;;;;;7.37;100.00;98706.13;6110010;19;20021;-75
2024/02/19 01:44:28;;;;;;;0.77;0.77;;;;;;;7.37;100.00;98706.13;6112058;19;20003;-74
2024/02/19 01:46:32;;;;;;;1.48;0.90;;;;;;;7.36;100.00;98701.75;6111355;19;20011;-74
2024/02/19 01:48:33;;;;;;;0.70;0.63;;;;;;;7.37;100.00;98716.34;6110861;19;20003;-74
2024/02/19 01:50:35;;;;;;;0.63;0.63;;;;;;;7.36;100.00;98728.47;6111259;19;20113;-74
2024/02/19 01:52:35;;;;;;;0.68;0.63;;;;;;;7.38;100.00;98717.94;6112687;19;20011;-74
2024/02/19 01:54:38;;;;;;;0.85;0.70;;;;;;;7.30;100.00;98712.25;6112076;19;20023;-74
2024/02/19 01:56:40;;;;;;;2.00;0.70;;;;;;;7.28;100.00;98730.22;6110735;19;20329;-74
2024/02/19 01:58:41;;;;;;;0.60;0.60;;;;;;;7.26;100.00;98725.09;6109749;19;20332;-74
2024/02/19 02:00:42;;;;;;;0.68;0.60;;;;;;;7.26;100.00;98719.56;6112252;19;20035;-74
2024/02/19 02:02:42;;;;;;;0.60;0.60;;;;;;;7.23;100.00;98719.50;6110021;19;20023;-74
2024/02/19 02:04:43;;;;;;;0.60;0.60;;;;;;;7.13;100.00;98729.03;6111519;19;20010;-74
2024/02/19 02:06:44;;;;;;;0.60;0.60;;;;;;;7.18;100.00;98731.53;6111847;19;20082;-74
2024/02/19 02:08:45;;;;;;;1.00;0.80;;;;;;;7.14;100.00;98719.63;6108142;19;20010;-74
2024/02/19 02:10:46;;;;;;;0.70;0.70;;;;;;;7.10;100.00;98724.22;6111639;19;20007;-74
2024/02/19 02:12:46;;;;;;;0.55;0.55;;;;;;;7.10;100.00;98723.41;6112221;19;20010;-74
2024/02/19 02:14:46;;;;;;;0.50;0.50;;;;;;;7.13;100.00;98722.75;6108202;19;20195;-74
2024/02/19 02:16:47;;;;;;;0.50;0.50;;;;;;;7.08;100.00;98728.47;6102515;19;20091;-74
2024/02/19 02:18:47;;;;;;;1.48;0.60;;;;;;;7.11;100.00;98733.28;6102473;19;20030;-74
2024/02/19 02:20:47;;;;;;;1.75;0.63;;;;;;;7.13;100.00;98728.25;6103463;19;19999;-74
2024/02/19 02:22:48;;;;;;;0.70;0.70;;;;;;;7.03;100.00;98732.25;6102817;19;20062;-74
2024/02/19 02:24:48;;;;;;;0.60;0.60;;;;;;;7.13;100.00;98736.50;6102859;19;20017;-74
2024/02/19 02:26:49;;;;;;;1.05;0.60;;;;;;;7.04;100.00;98745.69;6102902;19;20002;-74
2024/02/19 02:28:49;;;;;;;0.50;0.50;;;;;;;7.04;100.00;98742.94;6101430;19;20077;-74
2024/02/19 02:30:50;;;;;;;0.70;0.60;;;;;;;6.98;100.00;98744.31;6100563;19;20284;-74
2024/02/19 02:32:55;;;;;;;1.52;0.90;;;;;;;6.93;100.00;98736.31;6103285;19;20348;-74
2024/02/19 02:34:55;;;;;;;0.70;0.60;;;;;;;6.92;100.00;98748.47;6103444;19;20013;-74
2024/02/19 02:36:56;;;;;;;0.60;0.60;;;;;;;6.98;100.00;98749.81;6102737;19;20011;-74
2024/02/19 02:38:57;;;;;;;1.08;0.80;;;;;;;6.98;100.00;98758.09;6101390;19;20443;-74
2024/02/19 02:40:57;;;;;;;0.73;0.60;;;;;;;6.92;100.00;98742.16;6100526;19;20021;-74
2024/02/19 02:42:57;;;;;;;1.23;0.50;;;;;;;6.92;100.00;98742.16;6101629;19;20420;-74
2024/02/19 02:44:58;;;;;;;0.60;0.60;;;;;;;6.91;100.00;98751.56;6101468;19;20087;-74
2024/02/19 02:46:58;;;;;;;0.85;0.80;;;;;;;6.96;100.00;98743.88;6101512;19;20030;-74
2024/02/19 02:48:59;;;;;;;0.95;0.70;;;;;;;6.90;100.00;98739.75;6101288;19;20098;-74
2024/02/19 02:50:59;;;;;;;0.95;0.60;;;;;;;6.89;100.00;98734.63;6101264;19;20002;-74
2024/02/19 02:52:59;;;;;;;0.50;0.50;;;;;;;6.87;100.00;98743.22;6101213;19;20004;-74
2024/02/19 02:55:00;;;;;;;0.60;0.60;;;;;;;7.01;100.00;98743.63;6102291;19;20839;-74
2024/02/19 02:57:00;;;;;;;1.88;0.63;;;;;;;6.94;100.00;98732.41;6102206;19;19998;-74
2024/02/19 02:59:01;;;;;;;0.50;0.50;;;;;;;6.96;100.00;98738.38;6100122;19;20736;-74
2024/02/19 03:01:01;;;;;;;0.60;0.60;;;;;;;6.95;100.00;98730.44;6101448;19;20006;-74
2024/02/19 03:03:02;;;;;;;0.57;0.57;;;;;;;6.95;100.00;98760.72;6101645;19;20011;-74
2024/02/19 03:05:02;;;;;;;0.50;0.50;;;;;;;6.93;100.00;98741.00;6101771;19;20014;-74
2024/02/19 03:07:03;;;;;;;0.60;0.60;;;;;;;6.91;100.00;98749.59;6100401;19;20011;-74
2024/02/19 03:09:05;;;;;;;0.40;0.40;;;;;;;6.94;100.00;98750.84;6100266;19;20003;-74
2024/02/19 03:11:05;;;;;;;0.63;0.60;;;;;;;6.94;100.00;98748.09;6100713;19;20002;-74
2024/02/19 03:13:05;;;;;;;0.75;0.60;;;;;;;6.92;100.00;98770.47;6101349;19;20260;-74
2024/02/19 03:15:06;;;;;;;0.70;0.50;;;;;;;6.92;100.00;98747.66;6102174;19;20001;-74
2024/02/19 03:17:07;;;;;;;0.50;0.50;;;;;;;6.91;100.00;98751.56;6109550;19;19999;-74
2024/02/19 03:19:09;;;;;;;0.50;0.50;;;;;;;6.92;100.00;98759.47;6107441;19;20003;-74
2024/02/19 03:21:15;;;;;;;2.28;0.50;;;;;;;6.89;100.00;98762.13;6108326;19;20003;-74
2024/02/19 03:23:15;;;;;;;0.68;0.60;;;;;;;6.95;100.00;98760.72;6108958;19;20548;-74
2024/02/19 03:25:16;;;;;;;0.60;0.60;;;;;;;6.89;100.00;98759.38;6109351;19;20014;-74
2024/02/19 03:27:16;;;;;;;0.50;0.50;;;;;;;6.88;100.00;98768.78;6109134;19;20526;-74
2024/02/19 03:29:17;;;;;;;0.52;0.52;;;;;;;6.88;100.00;98757.78;6108159;19;20342;-74
2024/02/19 03:31:20;;;;;;;0.50;0.50;;;;;;;6.93;100.00;98757.50;6108883;19;20010;-74
2024/02/19 03:33:21;;;;;;;1.00;0.70;;;;;;;6.96;100.00;98776.91;6109751;19;20014;-74
2024/02/19 03:35:21;;;;;;;0.50;0.50;;;;;;;6.99;100.00;98773.44;6108876;19;20003;-74
2024/02/19 03:37:22;;;;;;;0.40;0.40;;;;;;;6.98;100.00;98782.03;6109526;19;20313;-74
2024/02/19 03:39:22;;;;;;;0.40;0.40;;;;;;;6.99;100.00;98800.94;6109072;19;20402;-74
2024/02/19 03:41:23;;;;;;;0.50;0.50;;;;;;;7.00;100.00;98782.50;6109392;19;20029;-74
2024/02/19 03:43:25;;;;;;;0.43;0.40;;;;;;;7.03;100.00;98812.03;6110025;19;20094;-74
2024/02/19 03:45:26;;;;;;;2.83;0.73;;;;;;;6.95;100.00;98805.56;6108942;19;20007;-74
2024/02/19 03:47:26;;;;;;;0.63;0.50;;;;;;;6.95;100.00;98802.81;6110029;19;20034;-74
2024/02/19 03:49:26;;;;;;;0.80;0.50;;;;;;;6.88;100.00;98824.59;6108066;19;20007;-74
2024/02/19 03:51:27;;;;;;;0.60;0.60;;;;;;;6.91;100.00;98829.38;6108240;19;20007;-74
2024/02/19 03:53:27;;;;;;;0.50;0.50;;;;;;;6.86;100.00;98826.84;6110404;19;20006;-74
2024/02/19 03:55:27;;;;;;;0.40;0.40;;;;;;;6.85;100.00;98830.75;6109468;19;20574;-74
2024/02/19 03:57:28;;;;;;;0.50;0.50;;;;;;;6.85;100.00;98836.25;6109584;19;20010;-74
2024/02/19 03:59:28;;;;;;;0.50;0.50;;;;;;;6.87;100.00;98844.16;6108702;19;20062;-74
2024/02/19 04:01:28;;;;;;;0.60;0.40;;;;;;;6.85;100.00;98849.19;6108791;19;20498;-74
2024/02/19 04:03:29;;;;;;;0.50;0.50;;;;;;;6.80;100.00;98847.50;6109423;19;20002;-74
2024/02/19 04:05:29;;;;;;;0.50;0.50;;;;;;;6.82;100.00;98861.72;6109609;19;20007;-74
2024/02/19 04:07:29;;;;;;;0.50;0.50;;;;;;;6.81;100.00;98870.31;6109377;19;20010;-74
2024/02/19 04:09:30;;;;;;;0.50;0.50;;;;;;;6.71;100.00;98863.31;6107311;19;20024;-74
2024/02/19 04:11:30;;;;;;;0.50;0.50;;;;;;;6.79;100.00;98872.59;6109048;19;20313;-74
2024/02/19 04:13:30;;;;;;;0.65;0.50;;;;;;;6.72;100.00;98875.91;6109048;19;20158;-74
2024/02/19 04:15:31;;;;;;;2.47;0.52;;;;;;;6.76;100.00;98874.06;6108720;19;20074;-74
2024/02/19 04:17:33;;;;;;;1.05;0.50;;;;;;;6.75;100.00;98867.78;6109629;19;20011;-74
2024/02/19 04:19:33;;;;;;;0.55;0.55;;;;;;;6.76;100.00;98876.81;6107889;19;20105;-74
2024/02/19 04:21:33;;;;;;;0.50;0.50;;;;;;;6.78;100.00;98869.03;6108743;19;20009;-74
2024/02/19 04:23:34;;;;;;;0.40;0.40;;;;;;;6.79;100.00;98875.34;6109123;19;20003;-74
2024/02/19 04:25:34;;;;;;;1.55;0.52;;;;;;;6.70;100.00;98870.75;6108868;19;20466;-74
2024/02/19 04:27:35;;;;;;;0.40;0.40;;;;;;;6.68;100.00;98866.72;6108569;19;20499;-74
2024/02/19 04:29:35;;;;;;;0.50;0.50;;;;;;;6.57;100.00;98869.13;6107760;19;20006;-74
2024/02/19 04:31:40;;;;;;;0.55;0.55;;;;;;;6.53;100.00;98862.69;6106429;19;20014;-74
2024/02/19 04:33:44;;;;;;;0.40;0.40;;;;;;;6.48;100.00;98876.69;6108698;19;20479;-74
2024/02/19 04:35:44;;;;;;;0.63;0.63;;;;;;;6.48;100.00;98879.44;6109171;19;20007;-74
2024/02/19 04:37:44;;;;;;;0.40;0.40;;;;;;;6.45;100.00;98880.94;6107688;19;20013;-74
2024/02/19 04:39:45;;;;;;;0.40;0.40;;;;;;;6.41;100.00;98879.19;6107638;19;20018;-74
2024/02/19 04:41:45;;;;;;;0.50;0.50;;;;;;;6.40;100.00;98874.84;6108076;19;20011;-74
2024/02/19 04:43:45;;;;;;;0.70;0.50;;;;;;;6.34;100.00;98879.75;6108376;19;20006;-74
2024/02/19 04:45:46;;;;;;;0.40;0.40;;;;;;;6.33;100.00;98882.84;6107444;19;20020;-74
2024/02/19 04:47:46;;;;;;;0.98;0.65;;;;;;;6.26;100.00;98886.13;6108492;19;20451;-74
2024/02/19 04:49:47;;;;;;;0.50;0.50;;;;;;;6.24;100.00;98885.69;6107710;19;19999;-74
2024/02/19 04:51:48;;;;;;;0.30;0.30;;;;;;;6.27;100.00;98884.19;6107770;19;20016;-74
2024/02/19 04:53:48;;;;;;;0.43;0.43;;;;;;;6.25;100.00;98886.47;6108403;19;20484;-74
2024/02/19 04:55:48;;;;;;;0.45;0.45;;;;;;;6.22;100.00;98901.72;6107826;19;19998;-74
2024/02/19 04:57:49;;;;;;;0.50;0.50;;;;;;;6.15;100.00;98907.75;6107538;19;20070;-74
2024/02/19 04:59:49;;;;;;;1.52;0.50;;;;;;;6.20;100.00;98899.28;6107055;19;20326;-74
2024/02/19 05:01:50;;;;;;;0.40;0.40;;;;;;;6.20;100.00;98903.97;6105810;19;20315;-74
2024/02/19 05:03:53;;;;;;;0.40;0.40;;;;;;;6.20;100.00;98910.25;6107494;19;20016;-74
2024/02/19 05:05:54;;;;;;;;;;;;;;;6.20;100.00;98932.25;6107567;19;20007;-74
2024/02/19 05:07:54;;;;;;;0.65;0.50;;;;;;;6.14;100.00;98922.63;6107366;19;19917;-74
2024/02/19 05:09:54;;;;;;;0.45;0.45;;;;;;;6.15;100.00;98937.16;6107042;19;20304;-74
2024/02/19 05:11:55;;;;;;;0.50;0.50;;;;;;;6.08;100.00;98940.44;6105336;19;20002;-74
2024/02/19 05:13:55;;;;;;;0.50;0.50;;;;;;;6.07;100.00;98951.78;6106544;19;20137;-74
2024/02/19 05:15:56;;;;;;;0.50;0.50;;;;;;;6.08;100.00;98950.63;6107284;19;20010;-73
2024/02/19 05:17:56;;;;;;;0.50;0.50;;;;;;;5.98;100.00;98942.81;6106732;19;20003;-74
2024/02/19 05:19:56;;;;;;;0.43;0.43;;;;;;;5.90;100.00;98953.53;6105592;19;20010;-74
2024/02/19 05:21:57;;;;;;;0.50;0.50;;;;;;;5.99;100.00;98955.41;6106024;19;20010;-74
2024/02/19 05:23:57;;;;;;;0.50;0.50;;;;;;;6.01;100.00;98956.66;6107262;19;20006;-74
2024/02/19 05:25:58;;;;;;;0.85;0.60;;;;;;;6.02;100.00;98963.75;6105285;19;20013;-74
2024/02/19 05:27:59;;;;;;;0.70;0.70;;;;;;;6.02;100.00;98961.03;6106156;19;20002;-74
2024/02/19 05:29:59;;;;;;;0.75;0.70;;;;;;;6.10;100.00;98965.63;6105859;19;20106;-74
2024/02/19 05:32:00;;;;;;;0.50;0.50;;;;;;;6.09;100.00;98961.28;6106611;19;20059;-74
2024/02/19 05:34:02;;;;;;;0.60;0.60;;;;;;;6.08;100.00;98961.63;6106606;19;20007;-74
2024/02/19 05:36:03;;;;;;;0.75;0.70;;;;;;;6.07;100.00;98980.06;6106025;19;20028;-74
2024/02/19 05:38:03;;;;;;;1.67;1.05;;;;;;;6.02;100.00;98977.50;6104468;19;20466;-74
2024/02/19 05:40:04;;;;;;;1.60;1.48;;;;;;;5.97;100.00;98985.97;6103877;19;20036;-74
2024/02/19 05:42:05;;;;;;;1.00;0.90;;;;;;;5.94;100.00;99003.09;6107170;19;20475;-74
2024/02/19 05:44:05;;;;;;;2.20;1.50;;;;;;;5.89;100.00;98997.78;6110312;19;20007;-74
2024/02/19 05:46:06;;;;;;;2.40;1.98;;;;;;;5.86;100.00;99004.72;6112205;19;20025;-74
2024/02/19 05:48:07;;;;;;;0.60;0.60;;;;;;;5.85;100.00;99005.88;6110982;19;20100;-74
2024/02/19 05:50:08;;;;;;;2.13;0.50;;;;;;;5.86;100.00;99001.97;6109117;19;20010;-74
2024/02/19 05:52:08;;;;;;;1.77;0.73;;;;;;;5.78;100.00;99008.34;6111289;19;20035;-74
2024/02/19 05:54:08;;;;;;;1.15;0.95;;;;;;;5.74;100.00;99028.56;6110433;19;20467;-74
2024/02/19 05:56:09;;;;;;;0.52;0.52;;;;;;;5.71;100.00;99007.25;6110659;19;20032;-73
2024/02/19 05:58:09;;;;;;;2.13;0.90;;;;;;;5.65;100.00;99025.88;6112270;19;20036;-74
2024/02/19 06:00:13;;;;;;;0.68;0.63;;;;;;;5.64;100.00;99007.81;6108084;19;20020;-74
2024/02/19 06:02:14;;;;;;;0.60;0.60;;;;;;;5.63;100.00;99008.94;6108432;19;20005;-74
2024/02/19 06:04:14;;;;;;;0.63;0.63;;;;;;;5.60;100.00;99015.09;6110397;19;20397;-74
2024/02/19 06:06:14;;;;;;;0.60;0.60;;;;;;;5.55;100.00;99013.34;6110175;19;20344;-74
2024/02/19 06:08:16;;;;;;;0.73;0.70;;;;;;;5.54;100.00;99033.66;6111685;19;20006;-74
2024/02/19 06:10:16;;;;;;;0.60;0.60;;;;;;;5.54;100.00;99036.41;6109585;19;20439;-74
2024/02/19 06:12:17;;;;;;;0.50;0.50;;;;;;;5.48;100.00;99037.75;6111370;19;20009;-74
2024/02/19 06:14:17;;;;;;;1.70;0.70;;;;;;;5.48;100.00;99034.22;6101355;19;20070;-74
2024/02/19 06:16:18;;;;;;;0.85;0.70;;;;;;;5.43;100.00;99035.19;6109837;19;19995;-74
2024/02/19 06:18:19;;;;;;;1.35;0.63;;;;;;;5.46;100.00;99036.47;6111103;19;20490;-74
2024/02/19 06:20:19;;;;;;;1.83;0.82;;;;;;;5.44;100.00;99044.22;6110296;19;19995;-74
2024/02/19 06:22:20;;;;;;;1.85;0.70;;;;;;;5.41;100.00;99045.69;6111262;19;20390;-74
2024/02/19 06:24:20;;;;;;;3.55;1.30;;;;;;;5.41;100.00;99064.91;6109577;19;20006;-74
2024/02/19 06:26:20;;;;;;;3.83;0.90;;;;;;;5.43;100.00;99059.88;6110875;19;20027;-74
2024/02/19 06:28:21;;;;;;;4.32;2.50;;;;;;;5.45;100.00;99054.06;6110693;19;20099;-74
2024/02/19 06:30:21;;;;;;;8.70;5.72;;;;;;;5.47;100.00;99058.13;6109927;19;20387;-74
2024/02/19 06:32:22;;;;;;;2.60;2.40;;;;;;;5.46;100.00;99055.66;6111556;19;20038;-74
2024/02/19 06:34:22;;;;;;;0.80;0.80;;;;;;;5.46;100.00;99081.22;6109883;19;20006;-74
2024/02/19 06:36:22;;;;;;;0.70;0.70;;;;;;;5.42;100.00;99065.72;6110389;19;20011;-74
2024/02/19 06:38:23;;;;;;;0.60;0.60;;;;;;;5.44;100.00;99063.44;6110677;19;20013;-74
2024/02/19 06:40:23;;;;;;;2.55;1.00;;;;;;;5.40;100.00;99076.22;6110406;19;20006;-74
2024/02/19 06:42:23;;;;;;;1.65;0.77;;;;;;;5.45;100.00;99074.09;6110173;19;20074;-74
2024/02/19 06:44:24;;;;;;;1.45;0.90;;;;;;;5.44;100.00;99086.19;6110628;19;20006;-74
2024/02/19 06:46:24;;;;;;;1.70;0.95;;;;;;;5.48;100.00;99081.69;6111784;19;20248;-73
2024/02/19 06:48:25;;;;;;;2.28;1.10;;;;;;;5.48;100.00;99083.63;6109856;19;20003;-74
2024/02/19 06:50:25;;;;;;;0.93;0.70;;;;;;;5.48;100.00;99076.19;6110398;19;19999;-74
2024/02/19 06:52:25;;;;;;;1.65;0.90;;;;;;;5.41;100.00;99080.56;6111855;19;20117;-74
2024/02/19 06:54:26;;;;;;;1.38;0.70;;;;;;;5.36;100.00;99092.53;6108328;19;20010;-74
2024/02/19 06:56:26;;;;;;;3.13;1.17;;;;;;;5.35;100.00;99080.75;6111911;19;20087;-74
2024/02/19 06:58:26;;;;;;;1.88;1.17;;;;;;;5.41;100.00;99100.59;6109543;19;20007;-74
2024/02/19 07:00:27;;;;;;;0.90;0.80;;;;;;;5.40;100.00;99101.72;6108966;19;20009;-74
2024/02/19 07:02:27;;;;;;;1.55;0.93;;;;;;;5.45;100.00;99106.22;6107893;19;20477;-74
2024/02/19 07:04:27;;;;;;;1.77;1.08;;;;;;;5.44;100.00;99108.16;6110710;19;20010;-74
2024/02/19 07:06:28;;;;;;;2.85;0.73;;;;;;;5.44;100.00;99108.16;6110673;19;20102;-74
2024/02/19 07:08:28;;;;;;;0.90;0.75;;;;;;;5.43;100.00;99112.03;6109062;19;20006;-74
2024/02/19 07:10:28;;;;;;;1.50;0.73;;;;;;;5.39;100.00;99111.09;6111246;19;20074;-74
2024/02/19 07:12:29;;;;;;;1.38;0.70;;;;;;;5.41;100.00;99119.00;6109909;19;20356;-74
2024/02/19 07:14:29;;;;;;;0.50;0.50;;;;;;;5.45;100.00;99123.47;6108697;19;20011;-74
2024/02/19 07:16:29;;;;;;;1.73;0.95;;;;;;;5.40;100.00;99126.41;6102313;19;20011;-74
2024/02/19 07:18:30;;;;;;;1.52;1.00;;;;;;;5.45;100.00;99139.16;6101409;19;20451;-74
2024/02/19 07:20:30;;;;;;;5.13;3.00;;;;;;;5.35;100.00;99127.38;6101933;19;20463;-74
2024/02/19 07:22:30;;;;;;;4.57;2.88;;;;;;;5.34;100.00;99120.28;6102013;19;20017;-74
2024/02/19 07:24:32;;;;;;;11.75;4.97;;;;;;;5.38;100.00;99125.94;6099773;19;20519;-74
2024/02/19 07:26:33;;;;;;;7.32;4.50;;;;;;;5.32;100.00;99135.50;6102963;19;20010;-74
2024/02/19 07:28:33;;;;;;;6.15;3.78;;;;;;;5.35;100.00;99138.38;6100687;19;20341;-74
2024/02/19 07:30:35;;;;;;;6.63;4.72;;;;;;;5.46;100.00;99144.34;6102110;19;20006;-74
2024/02/19 07:32:35;;;;;;;4.50;2.38;;;;;;;5.40;100.00;99131.91;6102213;19;20007;-74
2024/02/19 07:34:36;;;;;;;4.80;2.40;;;;;;;5.36;100.00;99156.44;6102324;19;20470;-74
2024/02/19 07:36:38;;;;;;;2.25;1.40;;;;;;;5.36;100.00;99141.91;6101202;19;20091;-74
2024/02/19 07:38:38;;;;;;;3.38;1.40;;;;;;;5.42;100.00;99151.59;6101398;19;20011;-74
2024/02/19 07:40:39;;;;;;;6.60;1.23;;;;;;;5.37;100.00;99170.97;6103034;19;20029;-74
2024/02/19 07:42:39;;;;;;;2.50;1.10;;;;;;;5.34;100.00;99166.13;6102217;19;20010;-74
2024/02/19 07:44:42;;;;;;;2.30;1.20;;;;;;;5.30;100.00;99163.25;6101790;19;20102;-74
2024/02/19 07:46:42;;;;;;;;;;;;;;;5.32;100.00;99171.16;6102357;19;20426;-74
2024/02/19 07:48:42;;;;;;;0.90;0.80;;;;;;;5.37;100.00;99154.50;6100299;19;19923;-74
2024/02/19 07:50:43;;;;;;;1.95;1.08;;;;;;;5.34;100.00;99169.69;6101150;19;20006;-74
2024/02/19 07:52:43;;;;;;;0.85;0.75;;;;;;;5.42;100.00;99172.75;6102307;19;23643;-74
2024/02/19 07:54:43;;;;;;;0.95;0.50;;;;;;;5.45;100.00;99170.13;6102768;19;20003;-74
2024/02/19 07:56:44;;;;;;;0.60;0.60;;;;;;;5.44;100.00;99174.03;6102319;19;20003;-74
2024/02/19 07:58:44;;;;;;;1.27;0.60;;;;;;;5.46;100.00;99182.75;6100539;19;20011;-74
2024/02/19 08:00:44;;;;;;;0.63;0.60;;;;;;;5.52;100.00;99186.91;6101579;19;20003;-74
2024/02/19 08:02:45;;;;;;;5.68;1.17;;;;;;;5.58;100.00;99187.56;6102250;19;20007;-74
2024/02/19 08:04:45;;;;;;;1.02;0.80;;;;;;;5.50;100.00;99183.69;6101468;19;20002;-74
2024/02/19 08:06:45;;;;;;;1.55;0.70;;;;;;;5.58;100.00;99193.03;6099848;19;19999;-74
2024/02/19 08:08:46;;;;;;;2.78;0.88;;;;;;;5.58;100.00;99185.59;6100482;19;20015;-74
2024/02/19 08:10:46;;;;;;;1.42;0.75;;;;;;;5.69;100.00;99201.72;6100851;19;20211;-74
2024/02/19 08:12:47;;;;;;;0.60;0.60;;;;;;;5.65;100.00;99198.84;6099330;19;20003;-74
2024/02/19 08:14:47;;;;;;;1.45;0.70;;;;;;;5.69;100.00;99205.28;6102635;19;20027;-74
2024/02/19 08:16:49;;;;;;;0.70;0.70;;;;;;;5.71;100.00;99210.44;6109433;19;20309;-74
2024/02/19 08:18:49;;;;;;;1.23;0.90;;;;;;;5.73;100.00;99209.00;6108115;19;20072;-74
2024/02/19 08:20:51;;;;;;;1.10;0.63;;;;;;;5.80;100.00;99211.22;6108362;19;20010;-74
2024/02/19 08:22:52;;;;;;;0.60;0.60;;;;;;;5.80;100.00;99200.25;6109298;19;20007;-74
2024/02/19 08:24:53;;;;;;;3.88;0.77;;;;;;;5.79;100.00;99209.59;6109276;19;20026;-74
2024/02/19 08:26:53;;;;;;;1.05;0.65;;;;;;;5.84;100.00;99217.66;6108181;19;20471;-74
2024/02/19 08:28:53;;;;;;;3.20;0.65;;;;;;;5.83;100.00;99213.31;6108314;19;19999;-74
2024/02/19 08:30:54;;;;;;;3.63;0.60;;;;;;;5.79;100.00;99220.56;6108961;19;20030;-74
2024/02/19 08:32:54;;;;;;;0.63;0.60;;;;;;;5.88;100.00;99219.44;6108646;19;20015;-74
2024/02/19 08:34:55;;;;;;;2.50;0.80;;;;;;;5.87;100.00;99231.53;6108342;19;20003;-74
2024/02/19 08:36:55;;;;;;;0.63;0.63;;;;;;;5.87;100.00;99222.50;6108341;19;20024;-74
2024/02/19 08:38:55;;;;;;;0.60;0.60;;;;;;;5.89;100.00;99231.22;6107124;19;20352;-74
2024/02/19 08:40:56;;;;;;;0.50;0.50;;;;;;;5.85;100.00;99225.56;6109041;19;20022;-74
2024/02/19 08:42:56;;;;;;;0.60;0.60;;;;;;;5.84;100.00;99223.16;6108530;19;20006;-74
2024/02/19 08:44:57;;;;;;;0.82;0.63;;;;;;;5.87;100.00;99228.78;6109221;19;19999;-74
2024/02/19 08:47:03;;;;;;;1.20;0.88;;;;;;;6.01;100.00;99234.09;6108887;19;20002;-74
2024/02/19 08:49:03;;;;;;;1.58;1.33;;;;;;;6.01;100.00;99234.09;6106914;19;20003;-74
2024/02/19 08:51:04;;;;;;;2.10;0.80;;;;;;;5.96;100.00;99248.03;6107288;19;20007;-74
2024/02/19 08:53:04;;;;;;;1.42;1.33;;;;;;;6.00;100.00;99234.44;6108225;19;20407;-74
2024/02/19 08:55:05;;;;;;;0.57;0.57;;;;;;;5.94;100.00;99233.00;6108266;19;20007;-74
2024/02/19 08:57:05;;;;;;;1.95;0.70;;;;;;;5.95;100.00;99242.84;6108626;19;20505;-74
2024/02/19 08:59:06;;;;;;;1.98;0.85;;;;;;;6.02;100.00;99243.97;6106357;19;20486;-74
2024/02/19 09:01:10;;;;;;;0.80;0.77;;;;;;;6.10;100.00;99234.06;6108081;19;20010;-74
2024/02/19 09:03:10;;;;;;;0.70;0.70;;;;;;;6.13;100.00;99239.72;6107855;19;20038;-74
2024/02/19 09:05:11;;;;;;;1.38;0.60;;;;;;;6.18;100.00;99235.97;6108041;19;20006;-74
2024/02/19 09:07:14;;;;;;;2.15;0.75;;;;;;;6.19;100.00;99248.56;6105216;19;20007;-74
2024/02/19 09:09:15;;;;;;;1.10;0.60;;;;;;;6.20;100.00;99255.69;6104490;19;20066;-74
2024/02/19 09:11:16;;;;;;;0.93;0.70;;;;;;;6.23;100.00;99246.00;6106896;19;20006;-74
2024/02/19 09:13:16;;;;;;;0.60;0.60;;;;;;;6.20;100.00;99241.94;6107985;19;20371;-74
2024/02/19 09:15:19;;;;;;;1.88;0.60;;;;;;;6.17;100.00;99248.91;6107451;19;20007;-74
2024/02/19 09:17:19;;;;;;;;;;;;;;;6.20;100.00;99253.72;6110845;19;20002;-74
2024/02/19 09:19:19;;;;;;;0.85;0.60;;;;;;;6.25;100.00;99247.25;6111972;19;19918;-74
2024/02/19 09:21:20;;;;;;;0.85;0.50;;;;;;;6.23;100.00;99243.25;6113337;19;20094;-74
2024/02/19 09:23:20;;;;;;;0.40;0.40;;;;;;;6.16;100.00;99254.75;6112920;19;20012;-74
2024/02/19 09:25:20;;;;;;;0.95;0.60;;;;;;;6.21;100.00;99246.31;6112709;19;20007;-74
2024/02/19 09:27:21;;;;;;;1.00;0.90;;;;;;;6.15;100.00;99262.19;6113139;19;20010;-74
2024/02/19 09:29:21;;;;;;;0.80;0.80;;;;;;;6.21;100.00;99260.06;6112175;19;20006;-74